createdAt,value
2017-06-11T00:00:08.083Z,78.70
2017-06-11T00:02:36.855Z,78.60
2017-06-11T00:05:05.635Z,80.10
2017-06-11T00:07:34.535Z,79.50
2017-06-11T00:10:03.307Z,77.80
2017-06-11T00:12:32.096Z,77.80
2017-06-11T00:15:00.999Z,77.40
2017-06-11T00:17:30.450Z,78.30
2017-06-11T00:19:59.243Z,78.40
2017-06-11T00:22:28.103Z,78.80
2017-06-11T00:24:56.875Z,78.90
2017-06-11T00:27:25.679Z,79.00
2017-06-11T00:29:54.562Z,78.80
2017-06-11T00:32:23.335Z,78.50
2017-06-11T00:34:52.111Z,78.70
2017-06-11T00:37:20.945Z,79.40
2017-06-11T00:39:49.710Z,78.60
2017-06-11T00:42:18.599Z,78.50
2017-06-11T00:44:47.482Z,78.40
2017-06-11T00:47:16.259Z,78.20
2017-06-11T00:49:45.058Z,79.00
2017-06-11T00:52:14.047Z,79.00
2017-06-11T00:54:42.818Z,78.70
2017-06-11T00:57:11.646Z,78.30
2017-06-11T00:59:40.515Z,79.20
2017-06-11T01:02:09.290Z,78.10
2017-06-11T01:04:38.182Z,78.30
2017-06-11T01:07:06.950Z,76.70
2017-06-11T01:09:35.714Z,76.00
2017-06-11T01:12:04.487Z,76.60
2017-06-11T01:14:33.263Z,76.80
2017-06-11T01:17:02.438Z,77.50
2017-06-11T01:19:32.246Z,78.20
2017-06-11T01:22:01.066Z,78.20
2017-06-11T01:24:29.846Z,79.00
2017-06-11T01:26:58.619Z,78.90
2017-06-11T01:29:27.398Z,80.60
2017-06-11T01:31:56.178Z,80.10
2017-06-11T01:34:24.946Z,80.50
2017-06-11T01:36:53.870Z,81.20
2017-06-11T01:39:23.638Z,81.80
2017-06-11T01:41:52.417Z,81.60
2017-06-11T01:44:21.321Z,82.10
2017-06-11T01:46:50.094Z,82.40
2017-06-11T01:49:18.934Z,82.30
2017-06-11T01:51:47.917Z,83.50
2017-06-11T01:54:16.745Z,83.40
2017-06-11T01:56:45.517Z,82.90
2017-06-11T01:59:14.292Z,81.90
2017-06-11T02:01:43.170Z,82.40
2017-06-11T02:04:11.961Z,82.00
2017-06-11T02:06:40.853Z,81.40
2017-06-11T02:09:09.625Z,80.60
2017-06-11T02:11:38.421Z,80.20
2017-06-11T02:14:07.181Z,79.60
2017-06-11T02:16:35.977Z,79.70
2017-06-11T02:19:04.761Z,80.60
2017-06-11T02:21:33.525Z,80.90
2017-06-11T02:24:02.877Z,81.00
2017-06-11T02:26:31.665Z,81.30
2017-06-11T02:29:00.489Z,80.30
2017-06-11T02:31:29.349Z,80.40
2017-06-11T02:33:58.233Z,80.90
2017-06-11T02:36:27.125Z,81.10
2017-06-11T02:38:55.881Z,80.90
2017-06-11T02:41:24.694Z,79.60
2017-06-11T02:43:53.477Z,79.00
2017-06-11T02:46:22.245Z,78.50
2017-06-11T02:48:51.009Z,78.30
2017-06-11T02:51:19.852Z,79.20
2017-06-11T02:53:48.625Z,78.60
2017-06-11T02:56:17.392Z,80.90
2017-06-11T02:58:46.313Z,81.30
2017-06-11T03:01:15.085Z,82.40
2017-06-11T03:03:44.589Z,82.90
2017-06-11T03:06:13.597Z,82.30
2017-06-11T03:08:42.380Z,81.40
2017-06-11T03:11:11.380Z,80.90
2017-06-11T03:13:40.260Z,80.00
2017-06-11T03:16:09.057Z,80.00
2017-06-11T03:18:37.816Z,80.10
2017-06-11T03:21:06.628Z,80.20
2017-06-11T03:23:35.400Z,79.90
2017-06-11T03:26:04.169Z,80.40
2017-06-11T03:28:32.945Z,80.40
2017-06-11T03:31:01.730Z,80.70
2017-06-11T03:33:30.564Z,81.10
2017-06-11T03:35:59.764Z,81.10
2017-06-11T03:38:28.532Z,82.30
2017-06-11T03:40:57.304Z,82.20
2017-06-11T03:43:26.236Z,81.50
2017-06-11T03:45:55.016Z,80.80
2017-06-11T03:48:23.789Z,81.30
2017-06-11T03:50:52.796Z,81.30
2017-06-11T03:53:21.580Z,81.90
2017-06-11T03:55:50.352Z,81.80
2017-06-11T03:58:19.388Z,82.00
2017-06-11T04:00:48.264Z,81.90
2017-06-11T04:03:17.036Z,82.50
2017-06-11T04:05:45.819Z,82.60
2017-06-11T04:08:14.593Z,82.60
2017-06-11T04:10:43.363Z,82.40
2017-06-11T04:13:12.172Z,82.50
2017-06-11T04:15:40.940Z,81.90
2017-06-11T04:18:09.772Z,82.30
2017-06-11T04:20:38.936Z,82.40
2017-06-11T04:23:08.567Z,81.80
2017-06-11T04:25:37.344Z,81.20
2017-06-11T04:28:06.256Z,81.20
2017-06-11T04:30:35.032Z,81.10
2017-06-11T04:33:03.824Z,81.50
2017-06-11T04:35:32.731Z,82.10
2017-06-11T04:38:01.507Z,82.40
2017-06-11T04:40:30.283Z,82.20
2017-06-11T04:42:59.067Z,81.70
2017-06-11T04:45:27.868Z,81.40
2017-06-11T04:47:56.647Z,82.40
2017-06-11T04:50:25.435Z,83.40
2017-06-11T04:52:54.227Z,83.80
2017-06-11T04:55:23.111Z,83.70
2017-06-11T04:57:52.111Z,83.40
2017-06-11T05:00:20.891Z,84.00
2017-06-11T05:02:49.675Z,84.50
2017-06-11T05:05:18.579Z,85.10
2017-06-11T05:07:47.363Z,85.40
2017-06-11T05:10:16.152Z,85.30
2017-06-11T05:12:45.059Z,84.50
2017-06-11T05:15:13.812Z,84.10
2017-06-11T05:17:42.587Z,83.90
2017-06-11T05:20:11.397Z,84.70
2017-06-11T05:22:40.131Z,84.60
2017-06-11T05:25:08.895Z,85.00
2017-06-11T05:27:37.679Z,84.90
2017-06-11T05:30:06.463Z,85.40
2017-06-11T05:32:36.127Z,85.90
2017-06-11T05:35:04.915Z,86.20
2017-06-11T05:37:33.687Z,85.40
2017-06-11T05:40:02.479Z,84.70
2017-06-11T05:42:31.263Z,84.70
2017-06-11T05:45:00.046Z,83.70
2017-06-11T05:47:28.807Z,84.20
2017-06-11T05:49:57.615Z,81.10
2017-06-11T05:52:26.375Z,80.20
2017-06-11T05:54:55.163Z,80.60
2017-06-11T05:57:23.943Z,81.20
2017-06-11T05:59:52.706Z,78.00
2017-06-11T06:02:21.475Z,78.30
2017-06-11T06:04:50.391Z,78.10
2017-06-11T06:07:19.159Z,76.00
2017-06-11T06:09:47.931Z,70.20
2017-06-11T06:12:16.711Z,73.00
2017-06-11T06:14:45.474Z,69.50
2017-06-11T06:17:14.263Z,67.60
2017-06-11T06:19:43.131Z,67.00
2017-06-11T06:22:11.898Z,66.60
2017-06-11T06:24:40.663Z,66.90
2017-06-11T06:27:09.558Z,63.10
2017-06-11T06:29:38.322Z,65.30
2017-06-11T06:32:07.090Z,65.10
2017-06-11T06:34:35.987Z,64.10
2017-06-11T06:37:04.754Z,63.70
2017-06-11T06:39:33.523Z,61.30
2017-06-11T06:42:02.410Z,61.90
2017-06-11T06:44:31.170Z,60.50
2017-06-11T06:46:59.986Z,61.20
2017-06-11T06:49:28.878Z,61.40
2017-06-11T06:51:57.638Z,62.20
2017-06-11T06:54:26.398Z,58.90
2017-06-11T06:56:55.286Z,59.70
2017-06-11T06:59:24.046Z,60.30
2017-06-11T07:01:52.810Z,61.30
2017-06-11T07:04:21.590Z,58.50
2017-06-11T07:06:50.350Z,59.20
2017-06-11T07:09:19.111Z,58.40
2017-06-11T07:11:47.882Z,58.40
2017-06-11T07:14:16.658Z,58.10
2017-06-11T07:16:45.414Z,57.10
2017-06-11T07:19:14.303Z,56.60
2017-06-11T07:21:43.063Z,57.80
2017-06-11T07:24:11.834Z,56.50
2017-06-11T07:26:40.725Z,59.30
2017-06-11T07:29:09.482Z,57.40
2017-06-11T07:31:38.242Z,57.30
2017-06-11T07:34:07.153Z,55.70
2017-06-11T07:36:35.914Z,55.90
2017-06-11T07:39:04.674Z,54.50
2017-06-11T07:41:33.566Z,53.80
2017-06-11T07:44:02.778Z,54.10
2017-06-11T07:46:31.538Z,53.80
2017-06-11T07:49:00.434Z,54.80
2017-06-11T07:51:29.201Z,54.20
2017-06-11T07:53:57.961Z,52.80
2017-06-11T07:56:26.741Z,53.70
2017-06-11T07:58:55.506Z,52.40
2017-06-11T08:01:24.269Z,53.00
2017-06-11T08:03:53.162Z,54.10
2017-06-11T08:06:21.921Z,53.00
2017-06-11T08:08:50.681Z,53.30
2017-06-11T08:11:19.453Z,54.20
2017-06-11T08:13:48.217Z,53.00
2017-06-11T08:16:16.978Z,52.70
2017-06-11T08:18:45.777Z,53.50
2017-06-11T08:21:14.545Z,49.90
2017-06-11T08:23:43.405Z,51.40
2017-06-11T08:26:12.134Z,52.80
2017-06-11T08:28:40.893Z,50.90
2017-06-11T08:31:09.653Z,51.80
2017-06-11T08:33:38.569Z,52.40
2017-06-11T08:36:07.322Z,51.50
2017-06-11T08:38:36.085Z,51.50
2017-06-11T08:41:04.856Z,51.00
2017-06-11T08:43:33.621Z,50.00
2017-06-11T08:46:02.389Z,49.50
2017-06-11T08:48:31.161Z,50.20
2017-06-11T08:50:59.924Z,49.00
2017-06-11T08:53:28.684Z,50.70
2017-06-11T08:55:57.457Z,48.80
2017-06-11T08:58:26.225Z,51.30
2017-06-11T09:00:54.985Z,52.00
2017-06-11T09:03:23.876Z,49.00
2017-06-11T09:05:52.640Z,47.90
2017-06-11T09:08:21.405Z,49.00
2017-06-11T09:10:50.300Z,47.20
2017-06-11T09:13:19.165Z,48.30
2017-06-11T09:15:47.929Z,49.10
2017-06-11T09:18:16.700Z,49.50
2017-06-11T09:20:45.468Z,46.20
2017-06-11T09:23:14.248Z,48.30
2017-06-11T09:25:43.020Z,45.40
2017-06-11T09:28:11.784Z,47.40
2017-06-11T09:30:40.552Z,47.10
2017-06-11T09:33:09.348Z,49.00
2017-06-11T09:35:38.116Z,45.70
2017-06-11T09:38:06.880Z,46.80
2017-06-11T09:40:35.656Z,46.20
2017-06-11T09:43:04.428Z,45.10
2017-06-11T09:45:33.188Z,45.60
2017-06-11T09:48:02.087Z,46.60
2017-06-11T09:50:30.856Z,46.90
2017-06-11T09:52:59.619Z,45.30
2017-06-11T09:55:28.407Z,45.20
2017-06-11T09:57:57.180Z,46.80
2017-06-11T10:00:25.952Z,48.20
2017-06-11T10:02:54.728Z,44.70
2017-06-11T10:05:23.493Z,44.20
2017-06-11T10:07:52.276Z,44.50
2017-06-11T10:10:21.052Z,44.90
2017-06-11T10:12:49.815Z,43.90
2017-06-11T10:15:18.592Z,44.10
2017-06-11T10:17:47.488Z,44.60
2017-06-11T10:20:16.252Z,43.50
2017-06-11T10:22:45.016Z,44.60
2017-06-11T10:25:13.792Z,44.30
2017-06-11T10:27:42.563Z,45.10
2017-06-11T10:30:11.364Z,45.40
2017-06-11T10:32:40.244Z,48.30
2017-06-11T10:35:09.007Z,46.10
2017-06-11T10:37:37.859Z,45.80
2017-06-11T10:40:06.759Z,44.90
2017-06-11T10:42:35.519Z,43.60
2017-06-11T10:45:04.291Z,42.70
2017-06-11T10:47:33.064Z,40.40
2017-06-11T10:50:01.823Z,44.60
2017-06-11T10:52:30.592Z,44.30
2017-06-11T10:54:59.363Z,45.40
2017-06-11T10:57:28.351Z,41.70
2017-06-11T10:59:57.119Z,43.40
2017-06-11T11:02:26.023Z,45.10
2017-06-11T11:04:54.827Z,45.50
2017-06-11T11:07:23.592Z,43.30
2017-06-11T11:09:52.487Z,42.20
2017-06-11T11:12:21.260Z,44.90
2017-06-11T11:14:50.042Z,44.40
2017-06-11T11:17:18.859Z,42.60
2017-06-11T11:19:47.643Z,43.40
2017-06-11T11:22:16.415Z,41.90
2017-06-11T11:24:45.311Z,44.00
2017-06-11T11:27:14.090Z,41.40
2017-06-11T11:29:42.855Z,42.50
2017-06-11T11:32:11.759Z,42.30
2017-06-11T11:34:40.563Z,43.10
2017-06-11T11:37:09.323Z,41.00
2017-06-11T11:39:38.102Z,43.00
2017-06-11T11:42:06.855Z,42.40
2017-06-11T11:44:35.627Z,42.70
2017-06-11T11:47:04.519Z,41.90
2017-06-11T11:49:33.288Z,40.50
2017-06-11T11:52:02.071Z,39.80
2017-06-11T11:54:30.850Z,37.70
2017-06-11T11:57:00.679Z,40.30
2017-06-11T11:59:29.506Z,39.30
2017-06-11T12:01:58.290Z,39.50
2017-06-11T12:04:27.066Z,38.80
2017-06-11T12:06:55.823Z,38.80
2017-06-11T12:09:24.594Z,39.40
2017-06-11T12:11:53.353Z,39.00
2017-06-11T12:14:22.114Z,38.70
2017-06-11T12:16:50.882Z,37.20
2017-06-11T12:19:19.642Z,38.70
2017-06-11T12:21:48.406Z,38.50
2017-06-11T12:24:17.178Z,40.60
2017-06-11T12:26:46.982Z,41.30
2017-06-11T12:29:15.782Z,39.60
2017-06-11T12:31:44.587Z,39.00
2017-06-11T12:34:13.454Z,40.80
2017-06-11T12:36:42.214Z,41.10
2017-06-11T12:39:11.115Z,39.50
2017-06-11T12:41:39.873Z,42.40
2017-06-11T12:44:08.634Z,41.10
2017-06-11T12:46:37.530Z,39.00
2017-06-11T12:49:06.298Z,38.90
2017-06-11T12:51:35.057Z,39.20
2017-06-11T12:54:03.949Z,38.90
2017-06-11T12:56:31.941Z,38.90
2017-06-11T12:59:00.707Z,38.30
2017-06-11T13:01:29.494Z,40.50
2017-06-11T13:03:58.254Z,35.80
2017-06-11T13:06:27.017Z,38.30
2017-06-11T13:08:55.921Z,38.80
2017-06-11T13:11:24.681Z,38.50
2017-06-11T13:13:53.442Z,37.10
2017-06-11T13:16:23.193Z,38.10
2017-06-11T13:18:51.954Z,40.60
2017-06-11T13:23:58.853Z,36.80
2017-06-11T13:30:58.158Z,40.70
2017-06-11T13:33:26.921Z,38.10
2017-06-11T13:35:55.685Z,37.70
2017-06-11T13:38:24.461Z,39.90
2017-06-11T13:40:53.225Z,41.30
2017-06-11T13:43:22.001Z,39.60
2017-06-11T13:45:50.930Z,39.40
2017-06-11T13:48:19.693Z,38.70
2017-06-11T13:50:48.449Z,40.20
2017-06-11T13:53:17.222Z,37.90
2017-06-11T13:55:45.985Z,37.70
2017-06-11T13:58:14.749Z,38.80
2017-06-11T14:00:43.641Z,37.40
2017-06-11T14:03:12.405Z,38.40
2017-06-11T14:05:41.169Z,38.90
2017-06-11T14:08:10.606Z,38.50
2017-06-11T14:10:39.377Z,38.00
2017-06-11T14:13:08.145Z,39.40
2017-06-11T14:15:37.041Z,37.60
2017-06-11T14:18:05.801Z,38.30
2017-06-11T14:20:34.569Z,37.20
2017-06-11T14:23:03.341Z,39.00
2017-06-11T14:25:32.124Z,36.60
2017-06-11T14:28:00.909Z,39.00
2017-06-11T14:30:29.833Z,37.60
2017-06-11T14:33:00.757Z,38.90
2017-06-11T14:35:29.657Z,39.90
2017-06-11T14:37:58.432Z,39.60
2017-06-11T14:40:27.201Z,36.90
2017-06-11T14:42:55.985Z,38.00
2017-06-11T14:45:24.745Z,40.10
2017-06-11T14:47:54.469Z,37.20
2017-06-11T14:50:23.244Z,38.30
2017-06-11T14:52:52.012Z,38.40
2017-06-11T14:55:20.776Z,38.90
2017-06-11T14:57:49.552Z,38.00
2017-06-11T15:00:18.340Z,39.40
2017-06-11T15:02:47.112Z,35.20
2017-06-11T15:05:15.888Z,36.70
2017-06-11T15:07:44.652Z,38.40
2017-06-11T15:10:13.416Z,39.70
2017-06-11T15:12:42.188Z,40.30
2017-06-11T15:15:10.961Z,40.80
2017-06-11T15:17:39.732Z,39.40
2017-06-11T15:20:08.656Z,39.10
2017-06-11T15:22:37.552Z,38.80
2017-06-11T15:25:06.276Z,39.50
2017-06-11T15:27:35.055Z,39.70
2017-06-11T15:30:03.832Z,40.30
2017-06-11T15:32:32.592Z,40.40
2017-06-11T15:35:02.228Z,40.50
2017-06-11T15:37:31.115Z,40.90
2017-06-11T15:39:59.884Z,41.20
2017-06-11T15:42:28.668Z,41.20
2017-06-11T15:44:57.456Z,38.70
2017-06-11T15:47:26.236Z,40.10
2017-06-11T15:49:55.133Z,39.50
2017-06-11T15:52:23.900Z,39.20
2017-06-11T15:54:52.680Z,41.10
2017-06-11T15:57:21.716Z,39.80
2017-06-11T15:59:50.489Z,42.00
2017-06-11T16:02:19.260Z,42.00
2017-06-11T16:04:48.027Z,40.20
2017-06-11T16:07:16.824Z,42.10
2017-06-11T16:09:45.575Z,42.20
2017-06-11T16:12:14.360Z,40.00
2017-06-11T16:14:43.135Z,42.00
2017-06-11T16:17:12.116Z,40.40
2017-06-11T16:19:40.887Z,40.90
2017-06-11T16:22:09.685Z,41.90
2017-06-11T16:24:38.464Z,42.70
2017-06-11T16:27:07.247Z,41.70
2017-06-11T16:29:36.011Z,42.80
2017-06-11T16:32:04.796Z,42.50
2017-06-11T16:34:33.583Z,41.80
2017-06-11T16:37:02.363Z,42.50
2017-06-11T16:39:31.155Z,42.30
2017-06-11T16:41:59.907Z,42.70
2017-06-11T16:44:29.571Z,43.50
2017-06-11T16:46:57.575Z,43.50
2017-06-11T16:49:26.475Z,41.90
2017-06-11T16:51:55.251Z,43.10
2017-06-11T16:54:24.023Z,43.10
2017-06-11T16:56:52.931Z,43.10
2017-06-11T16:59:21.706Z,43.20
2017-06-11T17:01:50.471Z,42.40
2017-06-11T17:04:19.258Z,42.80
2017-06-11T17:06:48.035Z,44.00
2017-06-11T17:09:16.804Z,43.50
2017-06-11T17:11:45.590Z,44.00
2017-06-11T17:14:14.359Z,42.80
2017-06-11T17:16:43.135Z,43.70
2017-06-11T17:19:11.919Z,44.90
2017-06-11T17:21:40.688Z,45.20
2017-06-11T17:24:09.455Z,44.00
2017-06-11T17:26:38.355Z,44.90
2017-06-11T17:29:07.120Z,45.60
2017-06-11T17:31:35.891Z,45.60
2017-06-11T17:34:04.782Z,45.70
2017-06-11T17:36:33.547Z,45.70
2017-06-11T17:39:02.306Z,44.80
2017-06-11T17:41:31.086Z,46.20
2017-06-11T17:43:59.846Z,46.20
2017-06-11T17:46:28.614Z,45.30
2017-06-11T17:48:57.394Z,46.30
2017-06-11T17:54:04.094Z,47.10
2017-06-11T17:56:32.854Z,47.20
2017-06-11T17:59:01.627Z,47.10
2017-06-11T18:01:30.402Z,47.80
2017-06-11T18:03:59.170Z,48.70
2017-06-11T18:06:27.946Z,49.30
2017-06-11T18:08:56.718Z,49.50
2017-06-11T18:11:25.496Z,50.20
2017-06-11T18:13:54.274Z,50.40
2017-06-11T18:16:23.054Z,51.20
2017-06-11T18:18:51.822Z,52.10
2017-06-11T18:21:20.582Z,52.40
2017-06-11T18:23:49.478Z,52.60
2017-06-11T18:26:18.247Z,52.70
2017-06-11T18:28:47.014Z,53.10
2017-06-11T18:31:15.782Z,53.10
2017-06-11T18:33:44.542Z,52.30
2017-06-11T18:36:13.305Z,52.80
2017-06-11T18:38:42.111Z,53.00
2017-06-11T18:41:10.854Z,53.30
2017-06-11T18:43:39.621Z,52.80
2017-06-11T18:46:08.386Z,52.90
2017-06-11T18:48:37.169Z,52.40
2017-06-11T18:51:05.930Z,52.00
2017-06-11T18:53:34.698Z,53.20
2017-06-11T18:56:03.474Z,54.80
2017-06-11T18:58:37.850Z,55.20
2017-06-11T19:01:07.098Z,55.20
2017-06-11T19:03:41.565Z,55.70
2017-06-11T19:06:09.909Z,55.50
2017-06-11T19:08:44.457Z,55.50
2017-06-11T19:11:12.710Z,56.20
2017-06-11T19:13:42.402Z,56.60
2017-06-11T19:16:11.193Z,56.10
2017-06-11T19:18:39.485Z,57.10
2017-06-11T19:21:08.257Z,56.40
2017-06-11T19:23:42.597Z,55.30
2017-06-11T19:26:10.894Z,56.30
2017-06-11T19:28:39.777Z,56.10
2017-06-11T19:31:08.531Z,56.30
2017-06-11T19:33:42.853Z,56.50
2017-06-11T19:36:11.161Z,57.40
2017-06-11T19:38:39.446Z,57.00
2017-06-11T19:41:08.225Z,57.50
2017-06-11T19:43:37.017Z,57.80
2017-06-11T19:46:05.794Z,57.60
2017-06-11T19:48:34.573Z,58.50
2017-06-11T19:51:03.357Z,58.70
2017-06-11T19:53:32.130Z,59.30
2017-06-11T19:56:02.989Z,59.70
2017-06-11T19:58:31.749Z,59.60
2017-06-11T20:01:00.536Z,60.30
2017-06-11T20:03:29.317Z,60.00
2017-06-11T20:05:58.105Z,61.20
2017-06-11T20:08:26.913Z,60.70
2017-06-11T20:10:55.697Z,60.00
2017-06-11T20:13:24.485Z,60.30
2017-06-11T20:15:53.273Z,60.70
2017-06-11T20:18:22.089Z,60.80
2017-06-11T20:20:51.873Z,61.50
2017-06-11T20:23:20.653Z,62.70
2017-06-11T20:25:50.352Z,62.30
2017-06-11T20:28:19.256Z,62.70
2017-06-11T20:30:48.905Z,62.90
2017-06-11T20:33:17.680Z,63.10
2017-06-11T20:35:46.452Z,63.10
2017-06-11T20:38:15.230Z,63.80
2017-06-11T20:40:44.132Z,64.30
2017-06-11T20:43:13.801Z,64.50
2017-06-11T20:45:42.601Z,64.40
2017-06-11T20:48:11.529Z,63.40
2017-06-11T20:50:41.204Z,63.20
2017-06-11T20:53:09.965Z,63.10
2017-06-11T20:55:38.736Z,63.10
2017-06-11T20:58:07.512Z,63.50
2017-06-11T21:00:36.286Z,64.00
2017-06-11T21:03:05.069Z,63.70
2017-06-11T21:05:33.864Z,63.90
2017-06-11T21:08:02.644Z,64.30
2017-06-11T21:10:31.417Z,65.00
2017-06-11T21:13:00.188Z,65.10
2017-06-11T21:15:29.872Z,66.20
2017-06-11T21:17:58.768Z,66.80
2017-06-11T21:20:27.536Z,66.80
2017-06-11T21:22:57.215Z,67.20
2017-06-11T21:25:26.028Z,66.10
2017-06-11T21:27:54.808Z,65.60
2017-06-11T21:30:23.580Z,66.20
2017-06-11T21:32:52.360Z,65.80
2017-06-11T21:35:21.132Z,66.20
2017-06-11T21:37:49.904Z,65.10
2017-06-11T21:40:17.924Z,65.10
2017-06-11T21:42:46.699Z,65.50
2017-06-11T21:45:16.472Z,65.00
2017-06-11T21:47:45.319Z,64.50
2017-06-11T21:50:14.087Z,65.30
2017-06-11T21:52:42.867Z,66.10
2017-06-11T21:55:11.776Z,67.10
2017-06-11T21:57:40.551Z,66.80
2017-06-11T22:00:09.496Z,66.70
2017-06-11T22:02:38.295Z,66.30
2017-06-11T22:05:07.964Z,66.00
2017-06-11T22:07:37.620Z,65.40
2017-06-11T22:10:06.523Z,64.70
2017-06-11T22:12:34.548Z,64.50
2017-06-11T22:15:03.324Z,63.90
2017-06-11T22:17:32.223Z,64.00
2017-06-11T22:20:01.003Z,64.40
2017-06-11T22:22:29.775Z,64.90
2017-06-11T22:24:58.555Z,64.90
2017-06-11T22:27:27.331Z,64.80
2017-06-11T22:29:56.099Z,64.80
2017-06-11T22:32:24.887Z,64.70
2017-06-11T22:34:53.661Z,65.00
2017-06-11T22:37:22.435Z,64.20
2017-06-11T22:39:51.339Z,64.80
2017-06-11T22:42:21.047Z,64.00
2017-06-11T22:44:49.827Z,63.70
2017-06-11T22:47:17.839Z,63.20
2017-06-11T22:49:46.611Z,63.40
2017-06-11T22:52:14.625Z,63.30
2017-06-11T22:54:42.919Z,62.90
2017-06-11T22:57:11.203Z,63.30
2017-06-11T22:59:39.974Z,63.20
2017-06-11T23:02:08.759Z,63.80
2017-06-11T23:04:37.527Z,63.10
2017-06-11T23:07:06.299Z,63.00
2017-06-11T23:12:13.139Z,63.00
2017-06-11T23:14:41.911Z,63.40
2017-06-11T23:17:09.916Z,63.40
2017-06-11T23:19:38.683Z,63.10
2017-06-11T23:22:07.479Z,63.10
2017-06-11T23:24:36.262Z,62.60
2017-06-11T23:27:05.158Z,62.60
2017-06-11T23:29:33.958Z,62.30
2017-06-11T23:32:03.670Z,62.40
2017-06-11T23:34:32.439Z,61.90
2017-06-11T23:37:00.458Z,62.00
2017-06-11T23:39:29.255Z,61.70
2017-06-11T23:41:58.026Z,61.70
2017-06-11T23:44:26.830Z,62.70
2017-06-11T23:46:56.595Z,62.30
2017-06-11T23:49:25.367Z,62.30
2017-06-11T23:51:55.427Z,62.30
2017-06-11T23:54:24.203Z,61.80
2017-06-11T23:56:52.423Z,61.80
2017-06-11T23:59:21.947Z,62.10
